Overview Statistics Trail Chart Weather Telemetry Raw packets
 

This is the latest recevied weather packets stored in our database for station/object N7BTW-13. If no packets are shown the sender has not sent any weather packets the latest 10 day(s).

<< 39 40 41 42 43 44 45 >>
Time Temp. Humidity Pressure Rain* Wind** Luminosity Snow
1788033606 22.78° C 53% - 0 mm - - -
1788033009 22.22° C 56% - 0 mm - - -
1788032406 21.67° C 58% - 0 mm - - -
1788031822 21.11° C 60% - 0 mm - - -
1788031207 20.56° C 64% - 0 mm - - -
1788030607 20° C 65% - 0 mm - - -
1788030007 20° C 64% - 0 mm - - -
1788029407 20.56° C 60% - 0 mm - - -
1788028809 20° C 62% - 0 mm - - -
1788028209 20.56° C 60% - 0 mm - - -
1788027608 21.67° C 60% - 0 mm - - -
1788027007 20° C 64% - 0 mm - - -
1788026406 20° C 65% - 0 mm - - -
1788025809 19.44° C 64% - 0 mm - - -
1788025210 20° C 63% - 0 mm - - -
1788024611 18.89° C 68% - 0 mm - - -
1788024008 18.89° C 69% - 0 mm - - -
1788023407 19.44° C 69% - 0 mm - - -
1788022808 17.78° C 75% - 0 mm - - -
1788022207 17.78° C 77% - 0 mm - - -
1788021606 17.78° C 74% - 0 mm - - -
1788021008 17.22° C 79% - 0 mm - - -
1788020406 16.11° C 82% - 0 mm - - -
1788019807 15° C 86% - 0 mm - - -
1788019209 15° C 87% - 0 mm - - -

* Rain latest hour (hover to see other rain measurements)
** Current wind speed in m/s (hover to see current wind gust speed)